Preston Ferry, Arkansas
Current Conditions -  °F | °C
As of 3:55 AM on Friday 28 Nov 2014 (Local Time) from KSGT Reporting Station
Clear Clear  
Wind Chill:   Ceiling: Unl
Heat Index:   Visibility: 10mi
Dew Point: -2°   Wind: 8mph
Humidity: 70%   Direction: 170°S
Pressure: 30.4"   Gusts: NA
Location:  34.6163°N, 91.3754°W
Report Text: KSGT 280955Z AUTO 17007KT 10SM CLR 03/M02 A3040 RMK AO1
Loading
Personal Weather Stations






























Interactive Weather Map New forecast layout! Learn more

10-Day Weather Forecast

Advertisements
Track Severe Weather on mobile